Forside
METAR-TAF:

METAR-TAF

Lufthavne :

Knoxville Municipal Airport

Knoxville, Iowa, USA

Breddekreds: 41-18N, længdekreds: 093-07W, højde: 283 m

Aktuelle vejr

Denne rapport blev lavet for 27 minutter siden, kl. 18:35 UTC
Vind 11 kt fra sydsydvest med vindstød på up til 19 kt
Temperatur 8°C
Fugtighed 49%
Tryk 1018 hPa
Sigt: 16.1 km
skyfri

METAR: KOXV 221835Z AUTO 20011G19KT 10SM CLR 08/M02 A3007 RMK AO2

Tid: 13:02 (19:02 UTC)


TAF: fraværende

Vejrobservationer og prognoser fra mere end 4000 lufthavne (METAR og TAF).

De gule og røde prikker repræsenterer de meteorologiske stationer.

Flyt musen over at se navnet på stationen.

Så klik over at se vejr observationer og prognoser.

At skifte det kort: Klik på de grønne knapper med et sort kors for at zoome ind; på den grønne knap med en bindestreg for at zoome ud; eller på de grønne pile for tilstødende kort.


METAR-TAF: